Date,TemperatureHighF,TemperatureAvgF,TemperatureLowF,DewpointHighF,DewpointAvgF,DewpointLowF,HumidityHigh,HumidityAvg,HumidityLow,PressureMaxIn,PressureMinIn,WindSpeedMaxMPH,WindSpeedAvgMPH,GustSpeedMaxMPH,PrecipitationSumIn
2013-1-1,25.0,21.8,19.0,21.0,18.2,16.0,92,86,74,30.14,30.03,11,5,0,0.72
2013-1-2,26.0,23.4,19.0,26.0,22.5,17.0,100,95,88,30.12,30.05,14,6,0,0.72
2013-1-3,29.0,25.0,20.0,28.0,24.2,17.0,100,96,88,30.13,29.99,13,6,0,0.72
2013-1-4,31.0,28.4,25.0,29.0,27.2,24.0,99,95,89,30.13,29.99,15,9,0,0.72
2013-1-5,36.0,27.0,16.0,34.0,26.3,16.0,100,97,81,30.19,29.92,12,4,0,0.72
2013-1-6,35.0,33.1,31.0,35.0,32.6,29.0,100,98,90,30.25,29.82,16,6,0,0.72
2013-1-7,36.0,31.5,29.0,31.0,28.0,23.0,100,87,62,30.26,30.06,18,8,0,0.72
2013-1-8,37.0,32.3,28.0,35.0,31.0,28.0,100,95,84,30.16,30.05,11,7,0,0.72
2013-1-9,43.0,38.3,33.0,39.0,33.9,29.0,98,85,64,30.40,29.93,16,6,0,0.72
2013-1-10,42.0,32.9,23.0,36.0,29.7,23.0,100,89,63,30.51,30.04,11,3,0,0.69
2013-1-11,50.0,43.1,35.0,50.0,43.1,35.0,100,100,100,30.04,29.69,8,2,0,0.72
2013-1-12,55.0,47.2,37.0,53.0,45.1,35.0,100,93,68,29.94,29.72,14,8,0,0.69
2013-1-13,37.0,30.1,23.0,36.0,29.9,21.0,100,99,95,30.08,29.83,11,2,0,0.69
2013-1-14,25.0,21.0,19.0,21.0,19.8,18.0,100,95,81,30.39,30.08,0,0,0,0.72
2013-1-15,30.0,24.4,20.0,25.0,22.1,20.0,100,91,74,30.38,30.11,10,2,0,0.72
2013-1-16,34.0,28.5,22.0,33.0,26.7,21.0,100,93,68,30.11,29.74,19,8,0,0.72
2013-1-17,33.0,25.9,19.0,33.0,21.5,12.0,100,84,69,30.32,29.93,17,9,0,0.72
2013-1-18,39.0,24.9,13.0,35.0,21.3,11.0,100,86,74,30.37,29.85,21,9,0,0.72
2013-1-19,43.0,40.5,37.0,41.0,37.5,24.0,98,89,56,29.85,29.54,18,11,0,0.72
2013-1-20,39.0,16.7,13.0,25.0,14.3,10.0,100,91,56,30.18,29.56,24,11,0,0.72
2013-1-21,15.0,9.1,1.0,14.0,8.5,-1.0,100,97,86,30.12,29.99,20,11,0,0.72
2013-1-22,8.0,2.3,-2.0,5.0,0.6,-3.0,98,93,80,30.25,30.12,13,7,0,0.72
2013-1-23,17.0,9.3,-3.0,17.0,9.2,-4.0,100,100,97,30.25,30.02,18,6,0,0.72
2013-1-24,18.0,9.3,-1.0,12.0,7.0,-1.0,100,91,68,30.58,30.16,9,3,0,0.72
2013-1-25,21.0,16.6,12.0,21.0,15.5,8.0,100,95,82,30.44,29.93,16,7,0,0.72
2013-1-26,28.0,22.8,19.0,26.0,21.8,19.0,100,96,81,30.38,30.01,13,4,0,0.72
2013-1-27,31.0,25.9,22.0,31.0,24.4,22.0,100,94,79,30.39,29.99,13,7,0,0.72
2013-1-28,42.0,35.3,31.0,42.0,35.3,31.0,100,100,100,29.99,29.79,11,4,0,0.72
2013-1-29,55.0,44.9,31.0,55.0,44.9,31.0,100,100,100,29.95,29.38,12,6,0,0.51
2013-1-30,51.0,37.8,24.0,51.0,37.8,24.0,100,100,100,29.38,29.10,21,6,0,0.69
2013-1-31,24.0,17.6,15.0,24.0,17.6,15.0,100,100,100,29.88,29.34,14,9,0,0.51